Time;durP1;ratioP1;P1;durP2;ratioP2;P2;SDS_P1;SDS_P2;PMS_P1;PMS_P2;Temp;Humidity;BMP_temperature;BMP_pressure;BME280_temperature;BME280_humidity;BME280_pressure;Samples;Min_cycle;Max_cycle;Signal;HPM_P1;HPM_P2
2023/05/20 00:01:52;;;;;;;134.68;92.10;;;;;;;17.06;52.18;93591.34;4940902;29;20039;-92
2023/05/20 00:04:20;;;;;;;133.25;89.85;;;;;;;17.08;52.57;93586.88;4951135;28;20042;-91
2023/05/20 00:06:46;;;;;;;131.57;87.53;;;;;;;17.10;52.05;93586.38;4943788;28;20054;-92
2023/05/20 00:09:12;;;;;;;130.27;89.47;;;;;;;17.08;52.39;93578.69;4934598;28;20150;-92
2023/05/20 00:11:38;;;;;;;134.02;90.90;;;;;;;17.06;52.23;93580.44;4958773;28;20075;-92
2023/05/20 00:14:03;;;;;;;137.80;93.97;;;;;;;17.06;52.28;93580.44;4947790;28;20043;-92
2023/05/20 00:16:30;;;;;;;125.57;88.50;;;;;;;17.07;52.44;93585.41;4941936;28;20074;-92
2023/05/20 00:18:56;;;;;;;133.82;92.30;;;;;;;17.02;52.62;93577.94;4920873;29;20039;-92
2023/05/20 00:21:21;;;;;;;128.70;88.95;;;;;;;17.08;52.20;93575.22;4920827;29;20056;-92
2023/05/20 00:23:46;;;;;;;120.85;86.90;;;;;;;17.06;52.28;93583.16;4921608;29;20039;-91
2023/05/20 00:26:12;;;;;;;123.28;86.80;;;;;;;17.07;52.33;93579.19;4921130;29;20047;-91
2023/05/20 00:28:37;;;;;;;131.88;88.38;;;;;;;17.06;52.44;93586.63;4905437;29;20054;-91
2023/05/20 00:31:03;;;;;;;123.88;86.43;;;;;;;17.07;52.26;93584.66;4924793;29;20031;-92
2023/05/20 00:33:31;;;;;;;127.50;90.38;;;;;;;17.08;52.25;93583.41;4921942;29;20368;-92
2023/05/20 00:35:57;;;;;;;132.40;89.60;;;;;;;17.09;52.09;93585.66;4920872;29;20044;-91
2023/05/20 00:38:24;;;;;;;131.18;91.78;;;;;;;17.08;52.05;93594.34;4925834;28;20054;-93
2023/05/20 00:40:50;;;;;;;122.05;88.05;;;;;;;17.09;52.23;93587.63;4955509;28;20114;-91
2023/05/20 00:43:16;;;;;;;133.10;92.43;;;;;;;17.04;52.22;93591.09;4961586;28;20068;-91
2023/05/20 00:45:41;;;;;;;132.50;89.80;;;;;;;17.07;52.56;93593.59;4961885;28;20038;-92
2023/05/20 00:48:07;;;;;;;127.05;87.55;;;;;;;17.05;52.54;93587.88;4978336;28;20046;-92
2023/05/20 00:50:33;;;;;;;127.03;87.43;;;;;;;17.03;52.14;93582.16;4985507;28;20072;-92
2023/05/20 00:52:58;;;;;;;125.72;87.78;;;;;;;17.07;52.18;93581.91;4988707;28;20116;-91
2023/05/20 00:55:25;;;;;;;131.23;89.80;;;;;;;17.05;52.17;93579.69;4972595;28;20042;-92
2023/05/20 00:57:51;;;;;;;128.65;89.93;;;;;;;17.03;52.19;93582.16;5021194;28;20427;-92
2023/05/20 01:00:17;;;;;;;124.72;86.95;;;;;;;17.04;52.63;93583.66;4999924;28;20117;-91
2023/05/20 01:02:44;;;;;;;125.85;88.18;;;;;;;17.07;51.97;93584.66;5016653;28;20037;-92
2023/05/20 01:05:09;;;;;;;129.77;89.50;;;;;;;17.03;52.22;93579.44;4981573;28;20126;-92
2023/05/20 01:07:35;;;;;;;129.95;90.65;;;;;;;17.08;52.23;93580.69;4971956;28;20407;-91
2023/05/20 01:10:01;;;;;;;133.30;89.45;;;;;;;17.10;52.27;93568.00;5017801;28;20457;-92
2023/05/20 01:12:33;;;;;;;128.52;85.38;;;;;;;17.03;52.08;93576.69;5014195;28;20037;-91
2023/05/20 01:15:10;;;;;;;137.25;88.78;;;;;;;17.05;52.10;93576.94;4995616;28;20141;-91
2023/05/20 01:17:39;;;;;;;125.47;85.25;;;;;;;17.07;52.16;93569.00;4960946;28;20050;-91
2023/05/20 01:20:09;;;;;;;127.72;86.53;;;;;;;17.03;51.92;93573.22;4976659;28;20042;-91
2023/05/20 01:22:36;;;;;;;127.70;87.67;;;;;;;17.07;52.53;93568.25;4964870;28;20045;-92
2023/05/20 01:25:04;;;;;;;122.90;87.35;;;;;;;17.02;52.06;93564.28;4980814;28;20041;-91
2023/05/20 01:27:35;;;;;;;124.00;85.18;;;;;;;17.02;52.41;93563.53;4963650;28;20463;-92
2023/05/20 01:30:01;;;;;;;120.97;84.20;;;;;;;17.07;52.13;93565.53;4993187;28;20050;-91
2023/05/20 01:32:42;;;;;;;122.55;83.63;;;;;;;17.04;52.09;93572.72;4992023;28;20817;-92
2023/05/20 01:35:09;;;;;;;122.13;86.20;;;;;;;17.04;52.13;93559.06;4959466;28;20398;-92
2023/05/20 01:37:38;;;;;;;119.30;82.22;;;;;;;17.03;52.06;93559.56;4962457;28;20108;-92
2023/05/20 01:40:07;;;;;;;124.15;84.72;;;;;;;17.04;52.31;93561.81;4944279;28;20493;-93
2023/05/20 01:42:34;;;;;;;128.45;86.32;;;;;;;17.01;52.37;93548.41;4961594;28;20039;-92
2023/05/20 01:45:01;;;;;;;127.47;88.32;;;;;;;17.01;51.90;93543.69;4958711;28;20070;-91
2023/05/20 01:47:28;;;;;;;126.72;86.10;;;;;;;17.01;51.97;93546.41;4976850;28;20085;-92
2023/05/20 01:49:54;;;;;;;124.25;86.35;;;;;;;16.98;52.37;93544.66;4977168;28;20130;-91
2023/05/20 01:52:20;;;;;;;123.40;82.95;;;;;;;16.99;52.14;93545.41;4974943;28;20097;-92
2023/05/20 01:54:50;;;;;;;125.63;85.90;;;;;;;16.99;51.94;93554.34;4977983;28;20034;-91
2023/05/20 01:57:18;;;;;;;120.70;82.97;;;;;;;17.02;52.33;93555.34;4977874;28;20515;-91
2023/05/20 01:59:54;;;;;;;123.05;84.70;;;;;;;17.00;52.31;93568.75;4961864;28;20641;-92
2023/05/20 02:02:19;;;;;;;124.50;85.95;;;;;;;16.98;52.30;93561.06;4962660;28;20129;-92
2023/05/20 02:04:47;;;;;;;123.65;83.32;;;;;;;17.00;52.34;93560.56;4960789;28;20049;-92
2023/05/20 02:07:14;;;;;;;121.13;85.25;;;;;;;16.99;52.08;93570.00;4956583;28;20038;-92
2023/05/20 02:09:39;;;;;;;113.85;82.28;;;;;;;17.00;52.15;93557.84;4964152;28;20045;-91
2023/05/20 02:12:06;;;;;;;122.95;85.20;;;;;;;16.97;52.02;93559.56;4963304;28;20432;-92
2023/05/20 02:14:31;;;;;;;122.07;85.50;;;;;;;17.01;52.38;93556.59;4964080;28;20068;-91
2023/05/20 02:16:56;;;;;;;125.97;85.00;;;;;;;17.04;52.17;93556.34;4963589;28;20042;-92
2023/05/20 02:19:24;;;;;;;116.72;83.85;;;;;;;16.99;52.59;93556.34;4961947;28;20049;-93
2023/05/20 02:21:56;;;;;;;116.80;85.03;;;;;;;16.98;52.23;93552.88;4963734;28;20544;-91
2023/05/20 02:24:22;;;;;;;127.40;84.53;;;;;;;16.99;52.33;93556.34;4979099;28;20566;-92
2023/05/20 02:26:49;;;;;;;125.22;87.05;;;;;;;16.99;52.41;93556.34;4979431;28;20033;-91
2023/05/20 02:29:15;;;;;;;128.95;85.75;;;;;;;16.98;52.42;93563.78;4979106;28;20042;-92
2023/05/20 02:31:41;;;;;;;120.30;81.07;;;;;;;17.00;52.14;93566.03;4996627;28;20038;-91
2023/05/20 02:34:06;;;;;;;118.72;84.45;;;;;;;17.01;52.07;93565.53;4994974;28;20042;-91
2023/05/20 02:36:32;;;;;;;122.22;83.60;;;;;;;16.98;52.23;93558.31;4979555;28;20034;-92
2023/05/20 02:38:59;;;;;;;113.53;80.00;;;;;;;17.04;52.21;93556.34;4979597;28;20588;-90
2023/05/20 02:41:25;;;;;;;118.20;84.10;;;;;;;16.96;52.50;93563.53;4998029;28;20091;-92
2023/05/20 02:43:51;;;;;;;118.13;82.63;;;;;;;16.96;52.36;93569.00;4998938;28;20041;-91
2023/05/20 02:46:18;;;;;;;115.32;81.57;;;;;;;16.99;52.44;93572.72;5017844;28;20048;-92
2023/05/20 02:48:44;;;;;;;119.45;84.43;;;;;;;17.01;52.49;93567.50;4979678;28;20423;-91
2023/05/20 02:51:11;;;;;;;118.32;84.03;;;;;;;17.00;52.27;93574.97;4994750;28;20069;-91
2023/05/20 02:53:37;;;;;;;117.82;84.28;;;;;;;16.98;52.39;93566.53;4983498;28;20030;-92
2023/05/20 02:56:03;;;;;;;118.15;82.90;;;;;;;16.99;52.31;93568.00;4948442;28;20042;-91
2023/05/20 02:58:30;;;;;;;114.65;80.55;;;;;;;16.97;51.75;93567.75;4955402;28;20273;-91
2023/05/20 03:00:57;;;;;;;116.47;83.53;;;;;;;16.96;52.01;93576.44;4924365;28;20043;-91
2023/05/20 03:03:25;;;;;;;120.45;82.35;;;;;;;16.96;52.44;93579.94;4924525;28;20047;-92
2023/05/20 03:05:51;;;;;;;118.25;82.63;;;;;;;17.01;52.35;93578.44;4935130;29;20054;-91
2023/05/20 03:08:18;;;;;;;119.88;81.75;;;;;;;16.98;52.19;93571.25;4926868;28;20035;-91
2023/05/20 03:10:45;;;;;;;115.05;80.85;;;;;;;17.01;52.38;93568.25;4926197;29;20084;-91
2023/05/20 03:13:11;;;;;;;118.22;78.55;;;;;;;17.00;52.38;93564.03;4924904;28;20072;-91
2023/05/20 03:15:38;;;;;;;122.63;83.15;;;;;;;16.97;52.09;93567.75;4925605;28;20067;-91
2023/05/20 03:18:03;;;;;;;121.30;84.68;;;;;;;16.96;52.11;93571.00;4958347;28;20034;-92
2023/05/20 03:20:38;;;;;;;114.50;82.63;;;;;;;16.97;52.60;93570.50;4960959;28;20108;-91
2023/05/20 03:23:04;;;;;;;114.97;79.45;;;;;;;16.95;52.10;93572.22;4959463;28;20109;-92
2023/05/20 03:25:31;;;;;;;115.30;82.00;;;;;;;16.99;52.22;93562.56;4960658;28;20500;-92
2023/05/20 03:28:00;;;;;;;117.05;81.38;;;;;;;16.97;52.40;93559.56;4963297;28;20068;-92
2023/05/20 03:30:27;;;;;;;116.57;81.28;;;;;;;16.97;52.02;93570.50;4973730;28;20043;-91
2023/05/20 03:32:56;;;;;;;111.82;79.72;;;;;;;16.97;51.97;93561.56;4959544;28;20085;-91
2023/05/20 03:35:24;;;;;;;112.57;79.70;;;;;;;16.94;52.13;93574.22;4966592;28;20451;-91
2023/05/20 03:37:52;;;;;;;106.68;76.60;;;;;;;16.97;52.20;93569.75;4975989;28;20035;-91
2023/05/20 03:40:19;;;;;;;114.85;81.28;;;;;;;16.97;52.24;93573.22;4961446;28;20532;-92
2023/05/20 03:42:45;;;;;;;119.35;81.53;;;;;;;16.95;52.47;93569.50;4961612;28;20054;-91
2023/05/20 03:45:12;;;;;;;110.65;79.53;;;;;;;16.99;52.35;93568.00;4977202;28;20039;-93
2023/05/20 03:47:38;;;;;;;119.15;81.55;;;;;;;16.98;51.81;93573.97;4976259;28;20041;-92
2023/05/20 03:50:05;;;;;;;105.10;75.97;;;;;;;16.97;52.38;93577.94;4977196;28;20126;-91
2023/05/20 03:52:32;;;;;;;119.03;79.13;;;;;;;16.98;52.42;93579.44;4960954;28;20077;-91
2023/05/20 03:54:58;;;;;;;113.88;81.93;;;;;;;17.01;51.96;93575.72;4976300;28;20188;-92
2023/05/20 03:57:24;;;;;;;121.57;82.25;;;;;;;17.02;51.95;93572.47;4959883;28;20054;-92
2023/05/20 03:59:50;;;;;;;111.95;75.90;;;;;;;17.01;51.95;93578.44;4960232;28;20487;-92
2023/05/20 04:02:15;;;;;;;108.72;77.68;;;;;;;17.00;52.09;93577.69;4954267;28;20047;-92
2023/05/20 04:04:44;;;;;;;108.82;75.40;;;;;;;17.06;51.98;93566.78;4937656;29;20058;-91
2023/05/20 04:07:10;;;;;;;114.43;78.30;;;;;;;17.06;51.96;93574.97;4928410;28;20043;-91
2023/05/20 04:09:37;;;;;;;108.38;76.38;;;;;;;17.05;51.99;93571.50;4938418;29;20520;-92
2023/05/20 04:12:05;;;;;;;112.63;79.50;;;;;;;17.05;52.20;93571.50;4937043;29;20492;-92
2023/05/20 04:14:33;;;;;;;116.13;79.57;;;;;;;17.03;52.37;93573.97;4916953;29;20035;-91
2023/05/20 04:17:04;;;;;;;110.70;75.90;;;;;;;17.06;51.76;93572.97;4941514;29;20070;-92
2023/05/20 04:19:30;;;;;;;110.05;76.70;;;;;;;17.05;51.76;93568.75;4924671;29;20050;-92
2023/05/20 04:21:56;;;;;;;116.63;80.50;;;;;;;17.04;51.88;93575.47;4953168;28;20048;-91
2023/05/20 04:24:24;;;;;;;111.93;77.03;;;;;;;17.10;52.05;93570.72;4937669;29;20139;-91
2023/05/20 04:26:52;;;;;;;109.65;78.90;;;;;;;17.14;51.77;93573.19;4937519;28;20051;-92
2023/05/20 04:29:18;;;;;;;111.50;76.78;;;;;;;17.14;52.04;93567.75;4941386;28;20035;-91
2023/05/20 04:31:47;;;;;;;105.65;78.38;;;;;;;17.18;51.64;93565.50;4987213;28;20066;-91
2023/05/20 04:34:13;;;;;;;108.82;77.55;;;;;;;17.14;51.73;93563.03;4959311;28;20218;-93
2023/05/20 04:36:38;;;;;;;106.25;75.40;;;;;;;17.21;51.99;93564.50;4945741;28;20145;-92
2023/05/20 04:39:04;;;;;;;104.20;74.82;;;;;;;17.19;51.82;93567.00;4958812;28;20133;-92
2023/05/20 04:41:30;;;;;;;107.35;75.72;;;;;;;17.18;51.68;93565.50;4941754;28;20055;-92
2023/05/20 04:43:58;;;;;;;105.00;76.93;;;;;;;17.18;51.93;93556.56;4958898;28;20083;-92
2023/05/20 04:46:24;;;;;;;108.80;75.38;;;;;;;17.22;51.86;93565.25;4927163;28;20130;-92
2023/05/20 04:49:00;;;;;;;107.30;74.65;;;;;;;17.17;51.85;93561.28;4943893;28;20058;-92
2023/05/20 04:51:25;;;;;;;107.75;75.85;;;;;;;17.18;51.59;93562.78;4941929;28;20493;-91
2023/05/20 04:53:51;;;;;;;109.75;76.82;;;;;;;17.18;51.65;93576.44;4974707;28;20078;-92
2023/05/20 04:56:17;;;;;;;105.10;77.15;;;;;;;17.18;51.93;93572.97;4949381;28;20435;-91
2023/05/20 04:58:43;;;;;;;116.10;78.57;;;;;;;17.16;51.56;93573.44;4966354;28;20077;-92
2023/05/20 05:01:10;;;;;;;109.90;76.70;;;;;;;17.21;51.35;93575.44;4980183;28;20045;-91
2023/05/20 05:03:35;;;;;;;104.22;74.78;;;;;;;17.20;51.64;93571.22;4981127;28;20042;-92
2023/05/20 05:06:02;;;;;;;111.90;77.43;;;;;;;17.24;51.61;93568.97;4956202;28;20173;-92
2023/05/20 05:08:27;;;;;;;111.82;75.95;;;;;;;17.29;51.56;93572.97;5000950;28;20065;-92
2023/05/20 05:10:54;;;;;;;110.40;74.32;;;;;;;17.27;51.60;93573.44;5001725;28;20042;-92
2023/05/20 05:13:20;;;;;;;109.28;75.18;;;;;;;17.28;51.95;93574.94;4976863;28;20037;-92
2023/05/20 05:15:47;;;;;;;100.72;73.32;;;;;;;17.26;51.60;93569.22;4988673;28;20072;-92
2023/05/20 05:18:17;;;;;;;103.30;73.32;;;;;;;17.30;51.29;93577.91;4980788;28;20066;-91
2023/05/20 05:20:42;;;;;;;101.97;74.05;;;;;;;17.30;51.38;93577.91;4982530;28;20038;-91
2023/05/20 05:23:08;;;;;;;103.40;72.10;;;;;;;17.32;51.62;93577.41;4963351;28;20120;-91
2023/05/20 05:25:33;;;;;;;105.85;74.68;;;;;;;17.33;51.42;93573.41;4963509;28;20050;-91
2023/05/20 05:27:58;;;;;;;111.93;78.10;;;;;;;17.32;51.16;93574.69;4965198;28;20046;-91
2023/05/20 05:30:24;;;;;;;98.25;70.55;;;;;;;17.34;51.17;93580.38;4963241;28;20490;-92
2023/05/20 05:32:49;;;;;;;102.57;71.00;;;;;;;17.36;51.33;93586.84;4980649;28;20475;-93
2023/05/20 05:35:15;;;;;;;105.72;74.43;;;;;;;17.33;51.76;93579.63;4963379;28;20038;-91
2023/05/20 05:37:40;;;;;;;103.45;75.00;;;;;;;17.34;51.14;93574.91;4980325;28;20065;-91
2023/05/20 05:40:07;;;;;;;105.50;72.43;;;;;;;17.36;51.54;93586.84;4961627;28;20038;-91
2023/05/20 05:42:34;;;;;;;101.32;74.07;;;;;;;17.37;51.92;93582.13;4960379;28;20457;-91
2023/05/20 05:45:00;;;;;;;88.95;65.60;;;;;;;17.48;52.04;93582.84;4980621;28;20045;-91
2023/05/20 05:47:31;;;;;;;100.65;73.25;;;;;;;17.41;51.26;93585.34;4997774;28;20045;-92
2023/05/20 05:49:58;;;;;;;;;;;;;;;17.45;51.23;93577.63;4962402;28;20181;-92
2023/05/20 05:52:24;;;;;;;102.18;70.28;;;;;;;17.41;51.48;93580.63;4961386;28;20499;-92
2023/05/20 05:54:49;;;;;;;100.93;72.32;;;;;;;17.42;51.30;93573.91;4961818;28;20050;-92
2023/05/20 05:57:16;;;;;;;100.05;71.93;;;;;;;17.43;51.25;93577.38;4951622;28;20448;-91
2023/05/20 05:59:42;;;;;;;102.70;72.95;;;;;;;17.43;51.51;93577.38;4945129;28;20046;-91
2023/05/20 06:02:09;;;;;;;104.00;72.38;;;;;;;17.44;51.27;93574.16;4987173;28;20045;-91
2023/05/20 06:04:36;;;;;;;101.63;72.65;;;;;;;17.44;51.21;93574.16;4963565;28;20048;-92
2023/05/20 06:07:02;;;;;;;104.10;71.50;;;;;;;17.46;51.36;93582.59;4945777;28;20074;-91
2023/05/20 06:09:27;;;;;;;95.72;66.65;;;;;;;17.50;51.50;93578.88;4916781;29;20048;-91
2023/05/20 06:11:53;;;;;;;97.60;68.65;;;;;;;17.51;51.56;93585.81;4893780;29;20048;-91
2023/05/20 06:14:18;;;;;;;96.00;68.15;;;;;;;17.50;51.50;93579.63;4919257;29;20040;-91
2023/05/20 06:16:44;;;;;;;100.10;69.78;;;;;;;17.50;51.21;93576.13;4919404;29;20033;-92
2023/05/20 06:19:09;;;;;;;94.15;67.80;;;;;;;17.52;51.17;93571.66;4901824;29;20044;-91
2023/05/20 06:21:42;;;;;;;95.57;67.82;;;;;;;17.52;51.30;93576.38;4918694;29;20395;-92
2023/05/20 06:24:08;;;;;;;100.07;70.07;;;;;;;17.52;51.53;93571.66;4886512;29;20143;-92
2023/05/20 06:26:33;;;;;;;91.60;64.90;;;;;;;17.54;51.60;93576.63;4909346;29;20039;-92
2023/05/20 06:29:02;;;;;;;90.63;64.68;;;;;;;17.53;51.38;93586.06;4906087;29;20052;-91
2023/05/20 06:31:28;;;;;;;87.85;62.30;;;;;;;17.55;51.26;93581.56;4903242;29;20159;-91
2023/05/20 06:33:55;;;;;;;92.60;63.80;;;;;;;17.54;51.48;93591.00;4905366;29;20128;-91
2023/05/20 06:36:21;;;;;;;101.45;67.95;;;;;;;17.56;51.18;93579.59;4863405;29;20036;-91
2023/05/20 06:38:47;;;;;;;88.88;62.88;;;;;;;17.54;51.47;93576.63;4894767;29;20104;-92
2023/05/20 06:41:13;;;;;;;90.07;64.85;;;;;;;17.55;51.41;93584.31;4931769;28;20151;-91
2023/05/20 06:43:39;;;;;;;90.30;67.70;;;;;;;17.55;51.59;93580.81;4945220;28;20114;-91
2023/05/20 06:46:05;;;;;;;86.63;60.25;;;;;;;17.57;51.97;93583.81;4959377;28;20101;-91
2023/05/20 06:48:30;;;;;;;97.80;68.38;;;;;;;17.56;51.52;93574.13;4943165;28;20043;-92
2023/05/20 06:50:57;;;;;;;91.45;65.40;;;;;;;17.53;51.67;93578.63;4959143;28;20558;-91
2023/05/20 06:53:23;;;;;;;87.28;64.40;;;;;;;17.58;51.85;93577.09;4998081;28;20138;-91
2023/05/20 06:55:49;;;;;;;95.88;65.18;;;;;;;17.59;51.30;93565.66;4985346;28;20528;-90
2023/05/20 06:58:14;;;;;;;91.35;67.03;;;;;;;17.59;51.65;93573.13;4986915;28;20042;-92
2023/05/20 07:00:40;;;;;;;87.10;63.65;;;;;;;17.56;51.81;93568.66;5009642;28;20045;-91
2023/05/20 07:03:05;;;;;;;89.20;63.28;;;;;;;17.57;51.50;93579.09;5018302;28;20037;-92
2023/05/20 07:05:32;;;;;;;91.95;65.32;;;;;;;17.58;51.29;93571.63;4991112;28;20042;-93
2023/05/20 07:07:58;;;;;;;89.45;63.88;;;;;;;17.56;51.46;93579.59;5001642;28;20048;-91
2023/05/20 07:10:24;;;;;;;91.10;63.95;;;;;;;17.57;51.64;93576.34;5001055;28;20491;-92
2023/05/20 07:12:50;;;;;;;96.00;68.20;;;;;;;17.58;51.68;93569.63;5000706;28;20089;-93
2023/05/20 07:15:16;;;;;;;95.75;67.20;;;;;;;17.59;51.29;93562.94;5001871;28;20127;-93
2023/05/20 07:17:43;;;;;;;91.68;63.60;;;;;;;17.60;51.49;93556.22;5001561;28;20491;-91
2023/05/20 07:20:09;;;;;;;91.45;66.18;;;;;;;17.59;51.68;93557.47;5011596;28;20037;-92
2023/05/20 07:22:34;;;;;;;85.30;63.72;;;;;;;17.58;51.50;93564.19;5001907;28;20089;-93
2023/05/20 07:25:08;;;;;;;86.30;62.00;;;;;;;17.60;51.95;93555.47;4999139;28;20052;-91
2023/05/20 07:27:33;;;;;;;88.32;65.45;;;;;;;17.60;51.25;93563.69;5016199;28;20043;-92
2023/05/20 07:30:00;;;;;;;92.93;66.25;;;;;;;17.61;51.38;93554.22;4998667;28;20404;-92
2023/05/20 07:32:26;;;;;;;90.10;65.55;;;;;;;17.60;51.87;93561.69;5004357;28;20041;-92
2023/05/20 07:34:52;;;;;;;90.75;65.13;;;;;;;17.65;52.34;93554.75;4984458;28;20140;-92
2023/05/20 07:37:19;;;;;;;91.75;63.50;;;;;;;17.65;52.01;93554.75;4999639;28;20044;-93
2023/05/20 07:39:46;;;;;;;86.47;63.70;;;;;;;17.67;52.26;93546.78;4998368;28;20045;-91
2023/05/20 07:42:11;;;;;;;92.90;66.80;;;;;;;17.63;51.93;93557.94;4975249;28;20037;-92
2023/05/20 07:44:37;;;;;;;87.05;63.25;;;;;;;17.60;51.58;93552.75;4997843;28;20049;-92
2023/05/20 07:47:03;;;;;;;76.68;56.00;;;;;;;17.65;52.39;93566.44;4995695;28;20101;-93
2023/05/20 07:49:28;;;;;;;84.35;59.42;;;;;;;17.64;51.68;93555.97;5034027;28;20065;-92
2023/05/20 07:51:54;;;;;;;86.82;62.80;;;;;;;17.62;52.10;93552.97;5000706;28;20464;-93
2023/05/20 07:54:23;;;;;;;85.30;61.13;;;;;;;17.62;51.58;93553.72;4999581;28;20038;-92
2023/05/20 07:56:48;;;;;;;89.40;63.42;;;;;;;17.66;51.80;93546.03;5009451;28;20045;-92
2023/05/20 07:59:14;;;;;;;89.22;63.92;;;;;;;17.63;51.41;93543.53;4991577;28;20065;-92
2023/05/20 08:01:40;;;;;;;78.10;55.70;;;;;;;17.67;52.78;93555.00;4998973;28;20045;-93
2023/05/20 08:04:05;;;;;;;87.75;62.53;;;;;;;17.64;51.86;93555.97;4997854;28;20500;-92
2023/05/20 08:06:32;;;;;;;77.00;54.53;;;;;;;17.67;52.98;93557.72;4994883;28;20052;-93
2023/05/20 08:08:57;;;;;;;81.90;58.00;;;;;;;17.68;52.76;93557.22;5000305;28;20526;-92
2023/05/20 08:11:24;;;;;;;87.25;61.00;;;;;;;17.66;52.77;93553.50;4999344;28;20061;-92
2023/05/20 08:13:49;;;;;;;89.30;60.63;;;;;;;17.62;51.97;93552.97;5002482;28;20047;-93
2023/05/20 08:16:15;;;;;;;84.28;59.53;;;;;;;17.63;52.13;93547.00;5000390;28;20041;-92
2023/05/20 08:18:41;;;;;;;84.22;61.17;;;;;;;17.64;52.13;93548.53;5000182;28;20164;-92
2023/05/20 08:21:06;;;;;;;84.85;60.78;;;;;;;17.66;51.93;93543.31;5015640;28;20612;-93
2023/05/20 08:23:32;;;;;;;78.40;58.92;;;;;;;17.70;53.01;93534.84;5000407;28;20569;-92
2023/05/20 08:26:01;;;;;;;96.88;63.60;;;;;;;17.65;51.57;93533.63;5000161;28;20045;-92
2023/05/20 08:28:26;;;;;;;89.32;63.53;;;;;;;17.64;52.04;93534.88;4999971;28;20512;-92
2023/05/20 08:30:52;;;;;;;87.53;62.08;;;;;;;17.67;52.84;93533.13;4996675;28;20065;-92
2023/05/20 08:33:20;;;;;;;89.45;63.65;;;;;;;17.68;51.51;93527.16;5031962;28;20450;-92
2023/05/20 08:35:46;;;;;;;87.80;61.78;;;;;;;17.65;51.67;93525.41;5000902;28;20114;-91
2023/05/20 08:38:11;;;;;;;77.00;56.33;;;;;;;17.70;52.38;93534.84;5003259;28;20038;-93
2023/05/20 08:40:37;;;;;;;83.70;60.20;;;;;;;17.72;52.68;93527.63;4999512;28;20041;-91
2023/05/20 08:43:02;;;;;;;73.35;54.50;;;;;;;17.68;52.36;93521.69;4999447;28;20084;-91
2023/05/20 08:45:29;;;;;;;84.32;60.60;;;;;;;17.71;52.33;93520.69;5015371;28;20491;-93
2023/05/20 08:47:56;;;;;;;79.97;57.22;;;;;;;17.70;52.69;93524.66;4999283;28;20560;-92
2023/05/20 08:50:21;;;;;;;78.07;55.72;;;;;;;17.74;53.12;93510.72;4999357;28;20038;-92
2023/05/20 08:52:47;;;;;;;74.85;52.92;;;;;;;17.71;52.99;93515.22;5000426;28;20507;-92
2023/05/20 08:55:25;;;;;;;83.03;59.95;;;;;;;17.66;52.63;93526.91;4998809;28;20091;-92
2023/05/20 08:57:53;;;;;;;81.38;59.10;;;;;;;17.69;52.70;93525.16;4999818;28;20124;-93
2023/05/20 09:00:20;;;;;;;78.13;56.75;;;;;;;17.69;52.68;93514.22;5000151;28;20068;-92
2023/05/20 09:02:46;;;;;;;72.15;52.80;;;;;;;17.69;52.90;93522.44;4999910;28;20044;-91
2023/05/20 09:05:12;;;;;;;80.90;57.55;;;;;;;17.70;52.81;93516.47;4998981;28;20041;-94
2023/05/20 09:07:38;;;;;;;75.00;53.70;;;;;;;17.71;53.38;93522.66;4999374;28;20040;-92
2023/05/20 09:10:04;;;;;;;78.90;55.55;;;;;;;17.65;52.85;93519.94;5012007;28;20046;-93
2023/05/20 09:12:29;;;;;;;75.72;54.88;;;;;;;17.65;52.75;93519.94;4996351;28;20030;-93
2023/05/20 09:14:55;;;;;;;78.30;54.83;;;;;;;17.69;52.89;93520.44;4997499;28;20044;-92
2023/05/20 09:17:21;;;;;;;72.00;52.80;;;;;;;17.68;52.97;93518.94;4998595;28;20487;-93
2023/05/20 09:19:49;;;;;;;74.68;54.85;;;;;;;17.64;52.45;93518.47;5015209;28;20038;-92
2023/05/20 09:22:20;;;;;;;81.82;56.45;;;;;;;17.67;52.86;93522.94;4999201;28;20036;-93
2023/05/20 09:24:47;;;;;;;;;;;;;;;17.64;52.92;93518.47;5000806;28;20089;-93
2023/05/20 09:27:12;;;;;;;79.45;57.03;;;;;;;17.67;52.82;93522.19;5016047;28;19921;-92
2023/05/20 09:29:38;;;;;;;79.05;56.30;;;;;;;17.66;52.73;93526.91;4999237;28;20144;-92
2023/05/20 09:32:05;;;;;;;74.38;53.38;;;;;;;17.69;52.79;93522.44;4999228;28;20037;-93
2023/05/20 09:34:32;;;;;;;70.50;52.22;;;;;;;17.70;53.10;93523.91;5012357;28;20500;-93
2023/05/20 09:36:58;;;;;;;77.70;56.63;;;;;;;17.66;52.68;93517.97;4998597;28;20350;-92
2023/05/20 09:39:24;;;;;;;79.55;56.50;;;;;;;17.65;52.70;93533.63;5006453;28;20414;-92
2023/05/20 09:42:04;;;;;;;75.85;54.42;;;;;;;17.66;52.69;93513.25;5000719;28;20041;-93
2023/05/20 09:44:32;;;;;;;72.43;54.70;;;;;;;17.66;52.65;93518.72;5015408;28;20079;-93
2023/05/20 09:46:58;;;;;;;73.53;53.15;;;;;;;17.68;52.49;93515.47;5000225;28;20029;-93
2023/05/20 09:49:23;;;;;;;85.97;59.60;;;;;;;17.65;52.26;93511.00;4999353;28;20399;-92
2023/05/20 09:51:49;;;;;;;76.45;55.50;;;;;;;17.67;52.86;93505.78;5000234;28;20114;-93
2023/05/20 09:54:19;;;;;;;71.07;52.53;;;;;;;17.70;52.86;93508.25;5015010;28;20037;-93
2023/05/20 09:56:50;;;;;;;74.88;53.97;;;;;;;17.69;53.16;93508.75;4999566;28;20122;-92
2023/05/20 09:59:16;;;;;;;75.28;53.70;;;;;;;17.68;52.93;93507.28;4998530;28;20037;-93
2023/05/20 10:01:43;;;;;;;73.45;55.95;;;;;;;17.70;52.94;93504.78;5006953;28;20084;-92
2023/05/20 10:04:08;;;;;;;79.03;56.35;;;;;;;17.69;53.10;93511.50;5015250;28;20045;-92
2023/05/20 10:06:54;;;;;;;73.95;55.15;;;;;;;17.69;52.75;93504.03;5028880;28;20033;-92
2023/05/20 10:09:38;;;;;;;77.78;54.25;;;;;;;17.67;52.96;93503.06;5016566;28;20203;-92
2023/05/20 10:12:19;;;;;;;66.13;49.08;;;;;;;17.65;52.96;93500.81;5016451;28;20048;-93
2023/05/20 10:15:15;;;;;;;77.10;54.97;;;;;;;17.66;52.94;93510.50;5016330;28;20037;-92
2023/05/20 10:18:00;;;;;;;68.88;50.03;;;;;;;17.69;53.07;93506.78;4999311;28;20061;-93
2023/05/20 10:20:25;;;;;;;79.43;54.45;;;;;;;17.71;52.83;93496.06;4995681;28;20072;-92
2023/05/20 10:22:57;;;;;;;67.07;48.78;;;;;;;17.66;52.70;93490.63;5014408;28;20476;-92
2023/05/20 10:25:26;;;;;;;68.97;50.15;;;;;;;17.66;52.36;93496.84;4996934;28;20138;-92
2023/05/20 10:27:51;;;;;;;72.68;51.88;;;;;;;17.71;52.87;93496.06;4998202;28;20040;-92
2023/05/20 10:30:18;;;;;;;71.38;51.88;;;;;;;17.73;53.27;93482.66;4997891;28;20041;-92
2023/05/20 10:32:59;;;;;;;69.50;50.33;;;;;;;17.71;53.30;93493.34;4997701;28;20513;-93
2023/05/20 10:35:25;;;;;;;75.05;53.75;;;;;;;17.72;52.80;93502.28;5012476;28;20182;-93
2023/05/20 10:37:51;;;;;;;68.70;49.47;;;;;;;17.72;53.27;93492.09;5009334;28;20112;-92
2023/05/20 10:40:19;;;;;;;66.47;48.72;;;;;;;17.73;52.53;93498.31;4996864;28;20168;-93
2023/05/20 10:42:46;;;;;;;70.32;49.78;;;;;;;17.70;53.15;93489.13;4997694;28;20057;-92
2023/05/20 10:45:23;;;;;;;78.80;54.05;;;;;;;17.70;52.89;93502.03;5012974;28;20039;-93
2023/05/20 10:47:56;;;;;;;73.72;50.35;;;;;;;17.71;52.99;93504.28;4989620;28;20033;-91
2023/05/20 10:50:27;;;;;;;64.95;49.10;;;;;;;17.72;53.08;93494.09;4992883;28;20578;-92
2023/05/20 10:52:53;;;;;;;70.07;50.80;;;;;;;17.72;53.04;93507.75;4997353;28;20491;-92
2023/05/20 10:55:21;;;;;;;66.47;50.83;;;;;;;17.72;53.01;93494.81;4995840;28;20049;-93
2023/05/20 10:57:47;;;;;;;66.88;50.80;;;;;;;17.71;53.07;93482.41;4998831;28;20120;-93
2023/05/20 11:00:15;;;;;;;67.18;49.60;;;;;;;17.69;52.89;93484.91;4999117;28;20051;-92
2023/05/20 11:02:40;;;;;;;68.65;51.05;;;;;;;17.69;53.07;93476.69;4979116;28;20042;-93
2023/05/20 11:05:06;;;;;;;66.63;48.58;;;;;;;17.74;53.05;93473.19;4973412;28;20396;-94
2023/05/20 11:07:32;;;;;;;63.13;48.28;;;;;;;17.79;53.15;93485.34;4973828;28;20124;-93
2023/05/20 11:09:59;;;;;;;64.40;47.95;;;;;;;17.75;52.83;93485.59;4961629;28;20077;-93
2023/05/20 11:12:25;;;;;;;66.15;48.83;;;;;;;17.74;53.07;93481.41;4973304;28;20038;-93
2023/05/20 11:14:50;;;;;;;69.43;49.13;;;;;;;17.78;53.37;93483.84;4966275;28;20464;-94